Time;durP1;ratioP1;P1;durP2;ratioP2;P2;SDS_P1;SDS_P2;PMS_P1;PMS_P2;Temp;Humidity;BMP_temperature;BMP_pressure;BME280_temperature;BME280_humidity;BME280_pressure;Samples;Min_cycle;Max_cycle;Signal;HPM_P1;HPM_P2
2023/05/23 00:01:06;;;;;;;7.90;4.93;;;;;;;;;;5011046;28;20018;-70
2023/05/23 00:03:32;;;;;;;10.40;5.30;;;;;;;;;;5012826;28;20083;-71
2023/05/23 00:05:58;;;;;;;9.35;4.30;;;;;;;;;;5014938;28;20046;-71
2023/05/23 00:08:24;;;;;;;9.38;4.95;;;;;;;;;;5015222;28;20109;-69
2023/05/23 00:10:51;;;;;;;12.05;5.18;;;;;;;;;;5014921;28;20030;-71
2023/05/23 00:13:17;;;;;;;10.88;4.80;;;;;;;;;;5014817;28;20088;-70
2023/05/23 00:15:44;;;;;;;9.65;5.35;;;;;;;;;;5014945;28;20601;-72
2023/05/23 00:18:10;;;;;;;9.63;5.38;;;;;;;;;;5014823;28;20037;-72
2023/05/23 00:20:42;;;;;;;11.02;5.65;;;;;;;;;;5014865;28;20022;-70
2023/05/23 00:23:08;;;;;;;;;;;;;;;;;;5015243;28;20119;-71
2023/05/23 00:25:35;;;;;;;12.40;4.93;;;;;;;;;;5014638;28;19914;-69
2023/05/23 00:28:01;;;;;;;10.00;5.43;;;;;;;;;;5014666;28;20080;-70
2023/05/23 00:30:31;;;;;;;10.60;5.32;;;;;;;;;;5014580;28;20033;-70
2023/05/23 00:32:57;;;;;;;11.95;6.57;;;;;;;;;;5014622;28;20022;-70
2023/05/23 00:35:24;;;;;;;9.40;4.85;;;;;;;;;;5014590;28;20108;-70
2023/05/23 00:37:50;;;;;;;11.45;4.82;;;;;;;;;;5014508;28;20026;-71
2023/05/23 00:40:19;;;;;;;12.55;4.82;;;;;;;;;;5014346;28;20087;-71
2023/05/23 00:42:45;;;;;;;11.20;4.75;;;;;;;;;;5014252;28;20041;-71
2023/05/23 00:45:11;;;;;;;11.13;4.88;;;;;;;;;;5014351;28;20028;-72
2023/05/23 00:47:39;;;;;;;10.07;5.20;;;;;;;;;;5014266;28;20062;-72
2023/05/23 00:50:07;;;;;;;11.57;5.43;;;;;;;;;;5014350;28;20045;-71
2023/05/23 00:52:33;;;;;;;8.73;5.00;;;;;;;;;;5014167;28;20463;-70
2023/05/23 00:55:00;;;;;;;10.40;4.93;;;;;;;;;;5013905;28;20037;-70
2023/05/23 00:57:26;;;;;;;10.15;5.07;;;;;;;;;;5012867;28;20036;-71
2023/05/23 00:59:52;;;;;;;10.18;5.32;;;;;;;;;;5014085;28;20026;-71
2023/05/23 01:02:20;;;;;;;9.57;5.22;;;;;;;;;;5013787;28;20038;-71
2023/05/23 01:04:47;;;;;;;10.98;5.63;;;;;;;;;;5013988;28;20418;-70
2023/05/23 01:07:13;;;;;;;11.05;5.68;;;;;;;;;;5013846;28;20532;-70
2023/05/23 01:09:39;;;;;;;11.40;5.65;;;;;;;;;;5013791;28;20033;-71
2023/05/23 01:12:11;;;;;;;11.60;5.47;;;;;;;;;;5013822;28;20021;-72
2023/05/23 01:14:37;;;;;;;;;;;;;;;;;;5013763;28;20394;-71
2023/05/23 01:17:10;;;;;;;10.88;4.95;;;;;;;;;;5012298;28;20394;-70
2023/05/23 01:19:56;;;;;;;10.25;5.53;;;;;;;;;;5013694;28;20511;-70
2023/05/23 01:22:41;;;;;;;13.20;5.63;;;;;;;;;;5013666;28;20498;-70
2023/05/23 01:25:09;;;;;;;11.32;5.47;;;;;;;;;;5013327;28;20045;-71
2023/05/23 01:27:47;;;;;;;10.98;5.22;;;;;;;;;;5013525;28;20391;-71
2023/05/23 01:30:16;;;;;;;11.02;5.32;;;;;;;;;;5013491;28;20026;-72
2023/05/23 01:32:42;;;;;;;11.35;5.70;;;;;;;;;;5013714;28;20053;-71
2023/05/23 01:35:10;;;;;;;14.50;6.05;;;;;;;;;;5013432;28;20046;-71
2023/05/23 01:37:36;;;;;;;13.50;6.35;;;;;;;;;;5013233;28;20036;-71
2023/05/23 01:40:02;;;;;;;14.60;6.18;;;;;;;;;;5013152;28;20112;-71
2023/05/23 01:42:28;;;;;;;14.43;6.38;;;;;;;;;;5013207;28;20037;-71
2023/05/23 01:44:58;;;;;;;11.73;5.90;;;;;;;;;;5013263;28;20037;-70
2023/05/23 01:47:24;;;;;;;12.55;5.50;;;;;;;;;;5013076;28;20108;-72
2023/05/23 01:49:50;;;;;;;15.55;5.85;;;;;;;;;;5013120;28;20025;-71
2023/05/23 01:52:16;;;;;;;11.40;5.07;;;;;;;;;;5013157;28;20061;-70
2023/05/23 01:54:43;;;;;;;11.38;5.85;;;;;;;;;;5013154;28;20029;-70
2023/05/23 01:57:10;;;;;;;12.85;5.32;;;;;;;;;;5012996;28;20037;-71
2023/05/23 01:59:37;;;;;;;12.32;5.60;;;;;;;;;;5012971;28;20049;-70
2023/05/23 02:02:03;;;;;;;13.98;6.53;;;;;;;;;;5013060;28;20049;-71
2023/05/23 02:04:30;;;;;;;12.93;6.03;;;;;;;;;;5011922;28;20025;-71
2023/05/23 02:06:56;;;;;;;16.10;5.70;;;;;;;;;;5012706;28;20463;-70
2023/05/23 02:09:22;;;;;;;11.43;5.82;;;;;;;;;;5011499;28;20034;-71
2023/05/23 02:11:48;;;;;;;11.57;5.93;;;;;;;;;;5012817;28;20407;-71
2023/05/23 02:14:14;;;;;;;8.63;5.93;;;;;;;;;;5012738;28;20048;-70
2023/05/23 02:16:40;;;;;;;13.73;5.88;;;;;;;;;;5011500;28;20513;-69
2023/05/23 02:19:06;;;;;;;12.57;5.93;;;;;;;;;;5012631;28;20022;-70
2023/05/23 02:21:32;;;;;;;12.63;6.07;;;;;;;;;;5012370;28;20119;-70
2023/05/23 02:23:58;;;;;;;14.85;6.45;;;;;;;;;;5012435;28;20045;-70
2023/05/23 02:26:26;;;;;;;13.45;5.93;;;;;;;;;;5011443;28;20092;-71
2023/05/23 02:28:52;;;;;;;11.50;6.28;;;;;;;;;;5012234;28;20022;-71
2023/05/23 02:31:18;;;;;;;15.32;6.47;;;;;;;;;;5012432;28;20053;-71
2023/05/23 02:33:44;;;;;;;15.32;6.20;;;;;;;;;;5012074;28;20052;-70
2023/05/23 02:36:10;;;;;;;12.65;6.82;;;;;;;;;;5012367;28;20022;-71
2023/05/23 02:38:36;;;;;;;16.13;7.40;;;;;;;;;;5012295;28;20038;-70
2023/05/23 02:41:03;;;;;;;11.63;5.82;;;;;;;;;;5012026;28;20043;-70
2023/05/23 02:43:29;;;;;;;14.68;6.57;;;;;;;;;;5012252;28;20045;-70
2023/05/23 02:45:55;;;;;;;15.80;7.05;;;;;;;;;;5012178;28;20026;-70
2023/05/23 02:48:22;;;;;;;16.90;7.68;;;;;;;;;;5012012;28;20114;-70
2023/05/23 02:50:48;;;;;;;13.63;6.82;;;;;;;;;;5011997;28;20434;-70
2023/05/23 02:53:14;;;;;;;12.35;6.00;;;;;;;;;;5012077;28;20364;-70
2023/05/23 02:55:41;;;;;;;17.92;8.07;;;;;;;;;;5011809;28;20022;-72
2023/05/23 02:58:07;;;;;;;15.18;7.15;;;;;;;;;;5010627;28;20038;-69
2023/05/23 03:00:33;;;;;;;17.60;7.32;;;;;;;;;;5012147;28;20029;-71
2023/05/23 03:03:00;;;;;;;16.55;6.82;;;;;;;;;;5011698;28;20034;-70
2023/05/23 03:05:26;;;;;;;14.32;7.10;;;;;;;;;;5012000;28;20072;-70
2023/05/23 03:07:53;;;;;;;19.92;7.75;;;;;;;;;;5011913;28;20044;-70
2023/05/23 03:10:19;;;;;;;14.80;7.07;;;;;;;;;;5011678;28;20470;-71
2023/05/23 03:12:46;;;;;;;17.67;7.75;;;;;;;;;;5011854;28;20080;-70
2023/05/23 03:15:12;;;;;;;13.77;6.88;;;;;;;;;;5011647;28;20022;-69
2023/05/23 03:17:38;;;;;;;14.90;7.10;;;;;;;;;;5011485;28;20018;-70
2023/05/23 03:20:08;;;;;;;17.15;6.53;;;;;;;;;;5011801;28;20105;-70
2023/05/23 03:22:34;;;;;;;19.13;7.18;;;;;;;;;;5011642;28;20037;-71
2023/05/23 03:25:00;;;;;;;14.07;7.00;;;;;;;;;;5011129;28;20121;-70
2023/05/23 03:27:26;;;;;;;17.30;7.47;;;;;;;;;;5011605;28;20064;-71
2023/05/23 03:29:52;;;;;;;17.58;7.15;;;;;;;;;;5010293;28;20027;-70
2023/05/23 03:32:18;;;;;;;15.55;7.05;;;;;;;;;;5011657;28;20517;-70
2023/05/23 03:34:44;;;;;;;14.55;7.00;;;;;;;;;;5011529;28;20033;-70
2023/05/23 03:37:11;;;;;;;16.08;7.20;;;;;;;;;;5011432;28;20033;-70
2023/05/23 03:39:37;;;;;;;14.77;7.68;;;;;;;;;;5014963;28;20164;-71
2023/05/23 03:42:03;;;;;;;16.17;7.10;;;;;;;;;;5015409;28;20041;-71
2023/05/23 03:44:29;;;;;;;14.55;6.97;;;;;;;;;;5015729;28;20018;-71
2023/05/23 03:46:55;;;;;;;20.67;8.85;;;;;;;;;;5014117;28;20033;-71
2023/05/23 03:49:21;;;;;;;15.75;7.55;;;;;;;;;;5015311;28;20101;-70
2023/05/23 03:51:47;;;;;;;15.23;7.30;;;;;;;;;;5015256;28;20118;-70
2023/05/23 03:54:13;;;;;;;18.83;7.55;;;;;;;;;;5015114;28;20114;-71
2023/05/23 03:56:39;;;;;;;18.70;7.55;;;;;;;;;;5015303;28;20378;-69
2023/05/23 03:59:05;;;;;;;15.55;6.82;;;;;;;;;;5015139;28;20108;-70
2023/05/23 04:01:31;;;;;;;14.05;7.63;;;;;;;;;;5014918;28;20057;-70
2023/05/23 04:03:59;;;;;;;16.33;7.65;;;;;;;;;;5014984;28;20034;-71
2023/05/23 04:06:25;;;;;;;16.48;7.53;;;;;;;;;;5014886;28;20018;-70
2023/05/23 04:08:51;;;;;;;18.35;8.07;;;;;;;;;;5014624;28;20232;-71
2023/05/23 04:11:17;;;;;;;15.98;7.60;;;;;;;;;;5014976;28;20022;-71
2023/05/23 04:13:45;;;;;;;19.88;7.93;;;;;;;;;;5013712;28;20112;-71
2023/05/23 04:16:11;;;;;;;12.20;7.50;;;;;;;;;;5014929;28;20090;-70
2023/05/23 04:18:38;;;;;;;18.60;8.48;;;;;;;;;;5014637;28;20029;-71
2023/05/23 04:21:04;;;;;;;15.65;7.65;;;;;;;;;;5014625;28;20053;-70
2023/05/23 04:23:30;;;;;;;15.93;7.45;;;;;;;;;;5012935;28;20037;-70
2023/05/23 04:25:56;;;;;;;15.35;7.95;;;;;;;;;;5019519;28;20061;-70
2023/05/23 04:28:23;;;;;;;16.45;7.53;;;;;;;;;;5014440;28;20145;-71
2023/05/23 04:30:49;;;;;;;19.52;7.28;;;;;;;;;;5013122;28;20483;-70
2023/05/23 04:33:16;;;;;;;19.55;9.02;;;;;;;;;;5014386;28;20026;-71
2023/05/23 04:35:42;;;;;;;19.35;8.38;;;;;;;;;;5014541;28;20104;-70
2023/05/23 04:38:09;;;;;;;17.88;8.10;;;;;;;;;;5029444;28;20033;-71
2023/05/23 04:40:35;;;;;;;16.33;7.53;;;;;;;;;;5014149;28;20029;-71
2023/05/23 04:43:01;;;;;;;19.35;8.38;;;;;;;;;;5014277;28;20549;-71
2023/05/23 04:45:27;;;;;;;17.92;7.72;;;;;;;;;;5014295;28;20399;-71
2023/05/23 04:47:53;;;;;;;19.05;8.18;;;;;;;;;;5014461;28;20559;-71
2023/05/23 04:50:21;;;;;;;16.92;8.48;;;;;;;;;;5012967;28;20030;-71
2023/05/23 04:52:47;;;;;;;16.55;8.05;;;;;;;;;;5013935;28;20028;-71
2023/05/23 04:55:14;;;;;;;15.90;7.70;;;;;;;;;;5014195;28;20113;-71
2023/05/23 04:57:40;;;;;;;12.57;7.28;;;;;;;;;;5014256;28;20018;-71
2023/05/23 05:00:09;;;;;;;16.67;8.05;;;;;;;;;;5014059;28;20525;-71
2023/05/23 05:02:36;;;;;;;18.80;8.07;;;;;;;;;;5013810;28;20077;-70
2023/05/23 05:05:03;;;;;;;13.45;7.20;;;;;;;;;;5028967;28;20049;-71
2023/05/23 05:07:29;;;;;;;17.10;8.25;;;;;;;;;;5013878;28;20511;-72
2023/05/23 05:09:55;;;;;;;15.13;7.85;;;;;;;;;;5029008;28;20021;-70
2023/05/23 05:12:21;;;;;;;15.38;7.93;;;;;;;;;;5028959;28;20029;-71
2023/05/23 05:14:47;;;;;;;18.98;8.00;;;;;;;;;;5013520;28;20028;-71
2023/05/23 05:17:13;;;;;;;19.13;8.63;;;;;;;;;;5020392;28;20025;-71
2023/05/23 05:19:40;;;;;;;16.08;7.93;;;;;;;;;;5032108;28;20022;-71
2023/05/23 05:22:06;;;;;;;15.68;7.88;;;;;;;;;;5033267;28;20029;-71
2023/05/23 05:24:33;;;;;;;16.65;8.00;;;;;;;;;;5033183;28;20017;-71
2023/05/23 05:26:59;;;;;;;16.77;8.00;;;;;;;;;;5024319;28;20038;-71
2023/05/23 05:29:25;;;;;;;16.95;8.35;;;;;;;;;;5013457;28;20045;-71
2023/05/23 05:31:52;;;;;;;18.00;7.90;;;;;;;;;;5013464;28;20364;-71
2023/05/23 05:34:18;;;;;;;16.15;7.65;;;;;;;;;;5013385;28;20026;-72
2023/05/23 05:36:47;;;;;;;13.68;8.85;;;;;;;;;;5013469;28;20037;-72
2023/05/23 05:39:13;;;;;;;17.83;7.65;;;;;;;;;;5013582;28;20017;-73
2023/05/23 05:41:40;;;;;;;18.02;7.55;;;;;;;;;;5013297;28;20030;-71
2023/05/23 05:44:06;;;;;;;17.73;7.70;;;;;;;;;;5013437;28;20030;-71
2023/05/23 05:46:32;;;;;;;16.33;8.02;;;;;;;;;;5013309;28;20083;-72
2023/05/23 05:48:58;;;;;;;15.02;7.60;;;;;;;;;;5011648;28;20022;-71
2023/05/23 05:51:24;;;;;;;11.93;7.13;;;;;;;;;;5013324;28;20080;-70
2023/05/23 05:53:50;;;;;;;15.18;7.18;;;;;;;;;;5012883;28;20026;-67
2023/05/23 05:56:17;;;;;;;13.23;7.03;;;;;;;;;;5013038;28;20034;-66
2023/05/23 05:58:43;;;;;;;14.93;7.50;;;;;;;;;;5012959;28;20053;-68
2023/05/23 06:01:09;;;;;;;16.95;7.13;;;;;;;;;;5012536;28;20112;-66
2023/05/23 06:03:35;;;;;;;14.23;6.32;;;;;;;;;;5012003;28;20038;-67
2023/05/23 06:06:01;;;;;;;16.13;6.85;;;;;;;;;;5012876;28;20034;-66
2023/05/23 06:08:27;;;;;;;12.77;6.28;;;;;;;;;;5011520;28;20208;-67
2023/05/23 06:10:53;;;;;;;16.48;7.25;;;;;;;;;;5013118;28;20109;-68
2023/05/23 06:13:19;;;;;;;12.63;5.13;;;;;;;;;;5012755;28;20563;-66
2023/05/23 06:15:45;;;;;;;14.23;5.65;;;;;;;;;;5012665;28;20030;-68
2023/05/23 06:18:11;;;;;;;10.75;5.35;;;;;;;;;;5012555;28;20033;-66
2023/05/23 06:20:37;;;;;;;9.50;4.53;;;;;;;;;;5012483;28;20037;-66
2023/05/23 06:23:04;;;;;;;8.48;4.82;;;;;;;;;;5012478;28;20399;-66
2023/05/23 06:25:30;;;;;;;13.23;4.50;;;;;;;;;;5010823;28;20504;-66
2023/05/23 06:27:56;;;;;;;11.48;4.40;;;;;;;;;;5012365;28;20080;-67
2023/05/23 06:30:23;;;;;;;10.02;4.43;;;;;;;;;;5012352;28;20113;-66
2023/05/23 06:32:49;;;;;;;12.35;4.82;;;;;;;;;;5012513;28;20022;-67
2023/05/23 06:35:16;;;;;;;13.07;4.55;;;;;;;;;;5012122;28;20428;-66
2023/05/23 06:37:44;;;;;;;10.00;5.30;;;;;;;;;;5010664;28;20485;-66
2023/05/23 06:40:13;;;;;;;9.15;3.42;;;;;;;;;;5012092;28;20040;-66
2023/05/23 06:42:39;;;;;;;9.38;4.10;;;;;;;;;;5012360;28;20588;-67
2023/05/23 06:45:05;;;;;;;8.02;4.20;;;;;;;;;;5012227;28;20034;-67
2023/05/23 06:47:31;;;;;;;13.65;3.97;;;;;;;;;;5012222;28;20113;-67
2023/05/23 06:49:57;;;;;;;12.13;3.80;;;;;;;;;;5010529;28;20112;-67
2023/05/23 06:52:23;;;;;;;10.73;3.88;;;;;;;;;;5011507;28;20614;-67
2023/05/23 06:54:50;;;;;;;11.13;3.50;;;;;;;;;;5011315;28;20096;-67
2023/05/23 06:57:16;;;;;;;8.82;2.75;;;;;;;;;;5011763;28;20032;-65
2023/05/23 06:59:42;;;;;;;7.05;2.95;;;;;;;;;;5011806;28;20030;-67
2023/05/23 07:02:08;;;;;;;6.45;2.40;;;;;;;;;;5010392;28;20040;-66
2023/05/23 07:04:34;;;;;;;7.05;3.05;;;;;;;;;;5011665;28;20030;-67
2023/05/23 07:07:01;;;;;;;8.27;2.53;;;;;;;;;;5011716;28;20109;-66
2023/05/23 07:09:27;;;;;;;5.63;2.50;;;;;;;;;;5011486;28;20073;-66
2023/05/23 07:11:53;;;;;;;3.08;1.85;;;;;;;;;;5011580;28;20080;-66
2023/05/23 07:14:19;;;;;;;10.00;2.30;;;;;;;;;;5010688;28;20036;-67
2023/05/23 07:16:46;;;;;;;5.85;2.22;;;;;;;;;;5010260;28;20033;-66
2023/05/23 07:19:12;;;;;;;6.43;2.45;;;;;;;;;;5010732;28;20030;-66
2023/05/23 07:21:38;;;;;;;7.05;1.85;;;;;;;;;;5011401;28;20022;-66
2023/05/23 07:24:04;;;;;;;6.15;1.90;;;;;;;;;;5011330;28;20119;-66
2023/05/23 07:26:30;;;;;;;6.10;2.35;;;;;;;;;;5010167;28;20073;-65
2023/05/23 07:28:56;;;;;;;6.88;1.95;;;;;;;;;;5011050;28;20468;-66
2023/05/23 07:31:22;;;;;;;7.07;1.88;;;;;;;;;;5011124;28;20060;-67
2023/05/23 07:33:48;;;;;;;7.97;2.33;;;;;;;;;;5011365;28;20041;-66
2023/05/23 07:36:14;;;;;;;5.07;1.77;;;;;;;;;;5011270;28;20415;-67
2023/05/23 07:38:40;;;;;;;6.63;2.22;;;;;;;;;;5011183;28;20085;-67
2023/05/23 07:41:06;;;;;;;8.10;2.00;;;;;;;;;;5011189;28;20034;-67
2023/05/23 07:43:32;;;;;;;6.43;2.00;;;;;;;;;;5011478;28;20032;-67
2023/05/23 07:45:58;;;;;;;5.53;1.70;;;;;;;;;;5011041;28;20493;-67
2023/05/23 07:48:26;;;;;;;4.28;1.90;;;;;;;;;;5009908;28;20112;-66
2023/05/23 07:50:54;;;;;;;4.50;1.70;;;;;;;;;;5011209;28;20478;-66
2023/05/23 07:53:21;;;;;;;4.80;2.10;;;;;;;;;;5011169;28;20395;-66
2023/05/23 07:55:47;;;;;;;6.97;2.35;;;;;;;;;;5011074;28;20026;-66
2023/05/23 07:58:13;;;;;;;7.93;2.28;;;;;;;;;;5011139;28;20030;-66
2023/05/23 08:00:40;;;;;;;5.63;1.90;;;;;;;;;;5011227;28;20117;-66
2023/05/23 08:03:06;;;;;;;5.10;1.88;;;;;;;;;;5011132;28;20034;-67
2023/05/23 08:05:32;;;;;;;4.72;1.85;;;;;;;;;;5011092;28;20034;-65
2023/05/23 08:07:58;;;;;;;5.50;2.70;;;;;;;;;;5011053;28;20034;-67
2023/05/23 08:10:27;;;;;;;6.93;2.03;;;;;;;;;;5011073;28;20033;-67
2023/05/23 08:12:53;;;;;;;9.50;1.90;;;;;;;;;;5011381;28;20057;-66
2023/05/23 08:15:21;;;;;;;4.28;1.83;;;;;;;;;;5011244;28;20029;-65
2023/05/23 08:17:48;;;;;;;6.15;1.95;;;;;;;;;;5011147;28;20026;-66
2023/05/23 08:20:14;;;;;;;4.80;1.85;;;;;;;;;;5011100;28;20018;-65
2023/05/23 08:22:40;;;;;;;4.38;1.70;;;;;;;;;;5010890;28;20129;-66
2023/05/23 08:25:06;;;;;;;7.97;1.70;;;;;;;;;;5013143;28;20091;-66
2023/05/23 08:27:34;;;;;;;8.35;1.85;;;;;;;;;;5015105;28;20036;-67
2023/05/23 08:30:01;;;;;;;10.02;2.15;;;;;;;;;;5014701;28;20025;-65
2023/05/23 08:32:27;;;;;;;3.90;1.90;;;;;;;;;;5014414;28;20040;-66
2023/05/23 08:34:53;;;;;;;5.80;2.20;;;;;;;;;;5014657;28;20412;-65
2023/05/23 08:37:20;;;;;;;8.95;2.00;;;;;;;;;;5014505;28;20048;-65
2023/05/23 08:39:46;;;;;;;3.35;1.77;;;;;;;;;;5014730;28;20025;-66
2023/05/23 08:42:12;;;;;;;7.85;2.13;;;;;;;;;;5014241;28;20076;-66
2023/05/23 08:44:39;;;;;;;4.40;1.58;;;;;;;;;;5014154;28;20033;-66
2023/05/23 08:47:08;;;;;;;5.75;1.65;;;;;;;;;;5014542;28;20104;-65
2023/05/23 08:49:34;;;;;;;5.18;1.95;;;;;;;;;;5014228;28;20022;-66
2023/05/23 08:52:02;;;;;;;5.32;1.75;;;;;;;;;;5014057;28;20036;-66
2023/05/23 08:54:28;;;;;;;8.57;1.73;;;;;;;;;;5014083;28;20022;-66
2023/05/23 08:56:55;;;;;;;3.15;1.58;;;;;;;;;;5014101;28;20026;-65
2023/05/23 08:59:21;;;;;;;6.50;2.38;;;;;;;;;;5014078;28;20459;-66
2023/05/23 09:01:47;;;;;;;4.13;1.50;;;;;;;;;;5012445;28;20036;-66
2023/05/23 09:04:14;;;;;;;5.00;2.00;;;;;;;;;;5014067;28;20033;-65
2023/05/23 09:06:40;;;;;;;6.13;2.25;;;;;;;;;;5013803;28;20498;-65
2023/05/23 09:09:06;;;;;;;5.05;2.13;;;;;;;;;;5013776;28;20102;-66
2023/05/23 09:11:35;;;;;;;5.88;2.08;;;;;;;;;;5014067;28;20018;-65
2023/05/23 09:14:03;;;;;;;5.43;1.88;;;;;;;;;;5013893;28;20049;-65
2023/05/23 09:16:33;;;;;;;8.45;1.95;;;;;;;;;;5013814;28;20022;-66
2023/05/23 09:19:09;;;;;;;4.10;2.03;;;;;;;;;;5013682;28;20022;-65
2023/05/23 09:21:35;;;;;;;7.60;1.58;;;;;;;;;;5013484;28;20033;-66
2023/05/23 09:24:01;;;;;;;8.82;1.83;;;;;;;;;;5013644;28;20365;-66
2023/05/23 09:26:27;;;;;;;3.70;1.65;;;;;;;;;;5013556;28;20053;-67
2023/05/23 09:28:56;;;;;;;5.50;1.75;;;;;;;;;;5013602;28;20034;-65
2023/05/23 09:31:25;;;;;;;5.82;1.85;;;;;;;;;;5013661;28;20301;-66
2023/05/23 09:33:51;;;;;;;7.38;2.22;;;;;;;;;;5013482;28;20108;-65
2023/05/23 09:36:18;;;;;;;6.07;1.55;;;;;;;;;;5012972;28;20018;-65
2023/05/23 09:38:45;;;;;;;5.25;1.63;;;;;;;;;;5013587;28;20056;-66
2023/05/23 09:41:11;;;;;;;9.02;2.30;;;;;;;;;;5013404;28;20552;-66
2023/05/23 09:43:39;;;;;;;8.75;2.20;;;;;;;;;;5013287;28;20112;-66
2023/05/23 09:46:09;;;;;;;6.10;1.52;;;;;;;;;;5013307;28;20493;-66
2023/05/23 09:48:35;;;;;;;4.40;1.75;;;;;;;;;;5013086;28;20026;-66
2023/05/23 09:51:09;;;;;;;5.15;1.70;;;;;;;;;;5013153;28;20463;-66
2023/05/23 09:53:36;;;;;;;4.32;1.48;;;;;;;;;;5012906;28;20018;-67
2023/05/23 09:56:03;;;;;;;3.55;1.38;;;;;;;;;;5013044;28;20429;-65
2023/05/23 09:58:29;;;;;;;4.22;1.40;;;;;;;;;;5012958;28;20030;-64
2023/05/23 10:00:56;;;;;;;4.68;1.60;;;;;;;;;;5012767;28;20103;-66
2023/05/23 10:03:43;;;;;;;7.50;1.75;;;;;;;;;;5012961;28;20026;-65
2023/05/23 10:06:17;;;;;;;8.15;1.90;;;;;;;;;;5009068;28;20406;-66
2023/05/23 10:08:44;;;;;;;4.55;1.60;;;;;;;;;;5012835;28;20026;-65
2023/05/23 10:11:12;;;;;;;6.05;1.70;;;;;;;;;;5012767;28;20022;-66
2023/05/23 10:13:45;;;;;;;3.40;1.77;;;;;;;;;;5012823;28;20030;-66
2023/05/23 10:16:18;;;;;;;6.85;1.73;;;;;;;;;;5012764;28;20033;-64
2023/05/23 10:18:45;;;;;;;6.80;1.80;;;;;;;;;;5013170;28;20022;-66
2023/05/23 10:21:12;;;;;;;6.50;2.00;;;;;;;;;;5012782;28;20378;-65
2023/05/23 10:23:39;;;;;;;3.97;1.70;;;;;;;;;;5012373;28;20025;-66
2023/05/23 10:26:05;;;;;;;5.18;1.90;;;;;;;;;;5012289;28;20422;-66
2023/05/23 10:28:32;;;;;;;5.75;1.88;;;;;;;;;;5012505;28;20084;-66
2023/05/23 10:30:59;;;;;;;5.18;1.60;;;;;;;;;;5012106;28;20178;-65
2023/05/23 10:33:33;;;;;;;7.28;1.73;;;;;;;;;;5012455;28;20022;-66
2023/05/23 10:36:28;;;;;;;5.70;1.70;;;;;;;;;;5012506;28;20036;-66
2023/05/23 10:39:14;;;;;;;6.72;1.77;;;;;;;;;;5007707;28;20037;-66
2023/05/23 10:41:40;;;;;;;6.05;1.95;;;;;;;;;;5008374;28;20046;-66
2023/05/23 10:44:11;;;;;;;6.38;2.22;;;;;;;;;;5012129;28;20030;-67
2023/05/23 10:46:51;;;;;;;6.80;1.80;;;;;;;;;;5012148;28;20026;-66
2023/05/23 10:49:17;;;;;;;3.15;1.20;;;;;;;;;;5011518;28;20053;-66
2023/05/23 10:51:46;;;;;;;3.95;1.80;;;;;;;;;;5012049;28;20022;-66
2023/05/23 10:54:12;;;;;;;14.25;3.28;;;;;;;;;;5012015;28;20029;-66
2023/05/23 10:56:38;;;;;;;2.88;1.65;;;;;;;;;;5011897;28;20880;-66
2023/05/23 10:59:05;;;;;;;6.03;1.85;;;;;;;;;;5011735;28;20030;-66
2023/05/23 11:01:31;;;;;;;6.20;1.73;;;;;;;;;;5012130;28;20026;-66
2023/05/23 11:03:57;;;;;;;14.82;3.88;;;;;;;;;;5012002;28;20072;-67
2023/05/23 11:06:43;;;;;;;10.05;2.17;;;;;;;;;;5011885;28;20021;-66
2023/05/23 11:09:12;;;;;;;5.75;1.70;;;;;;;;;;5011699;28;20394;-65
2023/05/23 11:11:53;;;;;;;8.55;1.80;;;;;;;;;;5011503;28;20018;-66
2023/05/23 11:14:31;;;;;;;4.80;1.50;;;;;;;;;;5011464;28;20068;-66
2023/05/23 11:16:57;;;;;;;3.33;1.75;;;;;;;;;;5011628;28;20383;-66
2023/05/23 11:19:26;;;;;;;3.85;1.65;;;;;;;;;;5011533;28;20045;-67
2023/05/23 11:21:59;;;;;;;3.83;1.80;;;;;;;;;;5011402;28;20030;-66
2023/05/23 11:24:45;;;;;;;5.38;1.27;;;;;;;;;;5011746;28;20041;-66
2023/05/23 11:27:11;;;;;;;6.97;1.73;;;;;;;;;;5011406;28;20041;-65
2023/05/23 11:29:37;;;;;;;8.13;2.20;;;;;;;;;;5011436;28;20096;-66
2023/05/23 11:32:11;;;;;;;7.70;1.77;;;;;;;;;;5011590;28;20038;-66
2023/05/23 11:34:38;;;;;;;5.03;1.65;;;;;;;;;;5011460;28;20030;-66
2023/05/23 11:37:04;;;;;;;6.30;1.90;;;;;;;;;;5011500;28;20487;-66
2023/05/23 11:39:30;;;;;;;3.28;1.40;;;;;;;;;;5011327;28;20026;-66
2023/05/23 11:42:02;;;;;;;6.13;1.60;;;;;;;;;;5011263;28;20482;-66
2023/05/23 11:44:28;;;;;;;5.30;1.75;;;;;;;;;;5011371;28;20535;-66
2023/05/23 11:47:05;;;;;;;5.82;1.60;;;;;;;;;;5011135;28;20022;-66
2023/05/23 11:49:31;;;;;;;3.45;1.55;;;;;;;;;;5011201;28;20018;-66
2023/05/23 11:51:59;;;;;;;5.40;1.75;;;;;;;;;;5011261;28;20078;-66
2023/05/23 11:54:25;;;;;;;6.47;1.83;;;;;;;;;;5011279;28;20037;-65
2023/05/23 11:56:51;;;;;;;4.43;1.52;;;;;;;;;;5011338;28;20068;-65
2023/05/23 11:59:17;;;;;;;5.03;1.50;;;;;;;;;;5012375;28;20108;-65
2023/05/23 12:01:44;;;;;;;5.22;1.80;;;;;;;;;;5014744;28;20508;-65
2023/05/23 12:04:11;;;;;;;5.22;1.80;;;;;;;;;;5015288;28;20030;-65
2023/05/23 12:06:39;;;;;;;4.88;1.75;;;;;;;;;;5015412;28;20080;-66
2023/05/23 12:09:06;;;;;;;5.20;1.83;;;;;;;;;;5015130;28;20391;-66
2023/05/23 12:11:32;;;;;;;6.43;1.52;;;;;;;;;;5013841;28;20377;-64
2023/05/23 12:14:00;;;;;;;3.45;1.30;;;;;;;;;;5014858;28;20545;-64
2023/05/23 12:16:28;;;;;;;3.47;1.75;;;;;;;;;;5015291;28;20038;-65
2023/05/23 12:18:55;;;;;;;8.20;1.83;;;;;;;;;;5013558;28;20030;-65
2023/05/23 12:21:25;;;;;;;5.13;1.73;;;;;;;;;;5014885;28;20038;-65
2023/05/23 12:23:51;;;;;;;4.72;1.70;;;;;;;;;;5014544;28;20092;-65
2023/05/23 12:26:17;;;;;;;5.38;1.83;;;;;;;;;;5014496;28;20042;-65
2023/05/23 12:28:44;;;;;;;5.82;1.38;;;;;;;;;;5014573;28;20082;-65
2023/05/23 12:31:15;;;;;;;7.88;1.70;;;;;;;;;;5014887;28;20018;-65
2023/05/23 12:33:44;;;;;;;;;;;;;;;;;;5014895;28;20070;-66
2023/05/23 12:36:11;;;;;;;9.00;1.65;;;;;;;;;;5014536;28;19905;-66
2023/05/23 12:38:39;;;;;;;7.40;2.20;;;;;;;;;;5014579;28;20018;-66
2023/05/23 12:41:20;;;;;;;4.45;1.73;;;;;;;;;;5014574;28;20108;-65
2023/05/23 12:43:51;;;;;;;7.20;1.90;;;;;;;;;;5014656;28;20040;-65
2023/05/23 12:46:17;;;;;;;7.35;1.80;;;;;;;;;;5014324;28;20022;-66
2023/05/23 12:48:43;;;;;;;8.10;2.40;;;;;;;;;;5014530;28;20029;-65
2023/05/23 12:51:09;;;;;;;8.07;2.22;;;;;;;;;;5014247;28;20164;-65
2023/05/23 12:53:35;;;;;;;7.20;2.30;;;;;;;;;;5014088;28;20502;-65
2023/05/23 12:56:01;;;;;;;7.28;2.22;;;;;;;;;;5014129;28;20061;-64
2023/05/23 12:58:28;;;;;;;7.45;1.98;;;;;;;;;;5013945;28;20030;-65
2023/05/23 13:00:54;;;;;;;5.28;1.80;;;;;;;;;;5014334;28;20060;-65
2023/05/23 13:03:20;;;;;;;8.23;2.00;;;;;;;;;;5013943;28;20038;-65
2023/05/23 13:05:46;;;;;;;5.18;1.85;;;;;;;;;;5014056;28;20018;-66
2023/05/23 13:08:13;;;;;;;7.80;1.80;;;;;;;;;;5013846;28;20026;-65
2023/05/23 13:10:39;;;;;;;5.85;2.42;;;;;;;;;;5013037;28;20015;-66
2023/05/23 13:13:05;;;;;;;6.88;1.80;;;;;;;;;;5013903;28;20556;-65
2023/05/23 13:15:31;;;;;;;6.28;1.88;;;;;;;;;;5013909;28;20025;-65
2023/05/23 13:17:57;;;;;;;9.23;2.20;;;;;;;;;;5012599;28;20482;-65
2023/05/23 13:20:23;;;;;;;7.90;2.10;;;;;;;;;;5013809;28;20030;-65
2023/05/23 13:22:49;;;;;;;9.50;2.38;;;;;;;;;;5013321;28;20125;-64
2023/05/23 13:25:15;;;;;;;8.68;2.20;;;;;;;;;;5013517;28;20573;-65
2023/05/23 13:27:41;;;;;;;8.45;2.20;;;;;;;;;;5013713;28;20052;-65
2023/05/23 13:30:08;;;;;;;4.32;1.92;;;;;;;;;;5012360;28;20445;-65
2023/05/23 13:32:34;;;;;;;7.95;2.08;;;;;;;;;;5013524;28;20018;-65
2023/05/23 13:35:00;;;;;;;5.90;1.70;;;;;;;;;;5013299;28;20049;-66
2023/05/23 13:37:27;;;;;;;4.22;1.98;;;;;;;;;;5013374;28;20018;-66
2023/05/23 13:39:53;;;;;;;9.13;2.60;;;;;;;;;;5013324;28;20383;-66
2023/05/23 13:42:19;;;;;;;7.72;2.00;;;;;;;;;;5013229;28;20037;-66
2023/05/23 13:44:45;;;;;;;6.85;1.95;;;;;;;;;;5013177;28;20091;-66
2023/05/23 13:47:12;;;;;;;9.00;2.30;;;;;;;;;;5013168;28;20451;-66
2023/05/23 13:49:38;;;;;;;6.50;2.03;;;;;;;;;;5013036;28;20022;-65
2023/05/23 13:52:05;;;;;;;6.20;2.58;;;;;;;;;;5013124;28;20033;-65
2023/05/23 13:54:31;;;;;;;6.25;2.20;;;;;;;;;;5013224;28;20026;-65
2023/05/23 13:56:57;;;;;;;7.50;2.10;;;;;;;;;;5013115;28;20014;-65
2023/05/23 13:59:24;;;;;;;6.55;2.35;;;;;;;;;;5012979;28;20387;-65
2023/05/23 14:01:50;;;;;;;8.23;2.03;;;;;;;;;;5013164;28;20334;-65
2023/05/23 14:04:16;;;;;;;5.65;1.90;;;;;;;;;;5011710;28;20037;-65
2023/05/23 14:06:42;;;;;;;7.10;2.15;;;;;;;;;;5012794;28;20033;-65
2023/05/23 14:09:08;;;;;;;5.78;1.90;;;;;;;;;;5013143;28;20037;-66
2023/05/23 14:11:34;;;;;;;7.35;2.40;;;;;;;;;;5012706;28;20471;-66
2023/05/23 14:14:00;;;;;;;5.93;2.17;;;;;;;;;;5012714;28;20057;-66
2023/05/23 14:16:26;;;;;;;9.05;2.13;;;;;;;;;;5012661;28;20096;-66
2023/05/23 14:18:52;;;;;;;7.47;2.35;;;;;;;;;;5013112;28;20235;-66
2023/05/23 14:21:18;;;;;;;10.02;3.28;;;;;;;;;;5012541;28;20080;-66
2023/05/23 14:23:45;;;;;;;5.85;1.90;;;;;;;;;;5012094;28;20605;-64
2023/05/23 14:26:11;;;;;;;8.10;2.33;;;;;;;;;;5012128;28;20380;-65
2023/05/23 14:28:37;;;;;;;7.07;1.80;;;;;;;;;;5012317;28;20463;-65
2023/05/23 14:31:03;;;;;;;6.88;1.80;;;;;;;;;;5012402;28;20083;-65
2023/05/23 14:33:29;;;;;;;7.43;2.35;;;;;;;;;;5012454;28;20502;-65
2023/05/23 14:35:56;;;;;;;6.47;1.85;;;;;;;;;;5012086;28;20034;-66
2023/05/23 14:38:22;;;;;;;6.10;2.25;;;;;;;;;;5012203;28;20029;-66